createdAt,value
2023-05-21T00:01:32.690Z,100837.13
2023-05-21T00:04:00.784Z,100818.75
2023-05-21T00:06:31.254Z,100827.47
2023-05-21T00:08:59.197Z,100825.09
2023-05-21T00:11:27.457Z,100831.13
2023-05-21T00:13:56.604Z,100827.78
2023-05-21T00:16:24.604Z,100826.94
2023-05-21T00:18:54.412Z,100824.47
2023-05-21T00:21:23.149Z,100821.94
2023-05-21T00:23:50.947Z,100824.78
2023-05-21T00:26:18.835Z,100820.59
2023-05-21T00:28:49.279Z,100820.59
2023-05-21T00:31:19.220Z,100816.09
2023-05-21T00:33:47.063Z,100806.59
2023-05-21T00:36:15.306Z,100802.41
2023-05-21T00:38:45.720Z,100804.09
2023-05-21T00:41:14.293Z,100808.56
2023-05-21T00:43:42.365Z,100792.56
2023-05-21T00:46:12.418Z,100800.75
2023-05-21T00:48:41.848Z,100797.41
2023-05-21T00:51:10.825Z,100796.06
2023-05-21T00:53:38.793Z,100802.72
2023-05-21T00:56:07.518Z,100795.72
2023-05-21T00:58:36.156Z,100788.75
2023-05-21T01:01:07.027Z,100792.41
2023-05-21T01:03:38.510Z,100791.72
2023-05-21T01:06:09.885Z,100791.06
2023-05-21T01:08:40.727Z,100793.72
2023-05-21T01:11:10.518Z,100783.06
2023-05-21T01:13:41.336Z,100787.56
2023-05-21T01:16:09.932Z,100790.22
2023-05-21T01:18:38.583Z,100786.72
2023-05-21T01:21:09.756Z,100794.69
2023-05-21T01:23:39.365Z,100791.06
2023-05-21T01:26:07.443Z,100784.06
2023-05-21T01:28:35.543Z,100788.53
2023-05-21T01:31:13.444Z,100763.34
2023-05-21T01:33:48.591Z,100781.41
2023-05-21T01:36:24.153Z,100777.91
2023-05-21T01:39:02.035Z,100784.06
2023-05-21T01:41:34.341Z,100780.72
2023-05-21T01:44:04.493Z,100772.88
2023-05-21T01:46:35.893Z,100772.03
2023-05-21T01:49:04.190Z,100773.03
2023-05-21T01:51:32.326Z,100762.19
2023-05-21T01:54:02.256Z,100768.69
2023-05-21T01:56:30.167Z,100761.50
2023-05-21T01:58:59.622Z,100771.22
2023-05-21T02:01:30.186Z,100775.00
2023-05-21T02:03:58.317Z,100768.22
2023-05-21T02:06:26.745Z,100768.69
2023-05-21T02:08:55.630Z,100761.72
2023-05-21T02:11:25.186Z,100769.03
2023-05-21T02:13:54.524Z,100769.19
2023-05-21T02:16:22.614Z,100771.03
2023-05-21T02:18:52.247Z,100771.16
2023-05-21T02:21:20.776Z,100771.03
2023-05-21T02:23:48.870Z,100771.03
2023-05-21T02:26:17.511Z,100769.34
2023-05-21T02:28:46.670Z,100772.00
2023-05-21T02:31:14.748Z,100771.31
2023-05-21T02:33:43.018Z,100760.69
2023-05-21T02:36:13.303Z,100773.00
2023-05-21T02:38:43.460Z,100756.47
2023-05-21T02:41:11.934Z,100760.69
2023-05-21T02:43:39.785Z,100744.00
2023-05-21T02:46:09.177Z,100757.03
2023-05-21T02:48:38.155Z,100759.53
2023-05-21T02:51:06.891Z,100758.03
2023-05-21T02:53:34.758Z,100749.19
2023-05-21T02:56:03.535Z,100756.19
2023-05-21T02:58:32.073Z,100758.69
2023-05-21T03:00:59.981Z,100752.69
2023-05-21T03:03:30.611Z,100748.38
2023-05-21T03:05:59.077Z,100731.34
2023-05-21T03:08:27.325Z,100753.38
2023-05-21T03:10:55.292Z,100746.69
2023-05-21T03:13:23.211Z,100738.88
2023-05-21T03:15:51.266Z,100740.38
2023-05-21T03:18:19.062Z,100737.72
2023-05-21T03:20:48.253Z,100736.72
2023-05-21T03:23:16.882Z,100730.56
2023-05-21T03:25:46.124Z,100726.88
2023-05-21T03:28:14.500Z,100737.72
2023-05-21T03:30:49.730Z,100734.38
2023-05-21T03:33:49.895Z,100743.34
2023-05-21T03:36:28.250Z,100745.03
2023-05-21T03:38:57.732Z,100743.34
2023-05-21T03:41:26.121Z,100742.50
2023-05-21T03:44:00.069Z,100750.97
2023-05-21T03:46:33.609Z,100737.66
2023-05-21T03:49:08.390Z,100742.00
2023-05-21T03:51:40.036Z,100743.50
2023-05-21T03:54:10.213Z,100744.66
2023-05-21T03:56:38.842Z,100736.31
2023-05-21T03:59:06.813Z,100740.31
2023-05-21T04:01:34.940Z,100732.34
2023-05-21T04:04:03.495Z,100735.69
2023-05-21T04:06:32.445Z,100741.84
2023-05-21T04:09:01.640Z,100742.66
2023-05-21T04:11:29.375Z,100742.66
2023-05-21T04:13:57.189Z,100739.31
2023-05-21T04:16:25.133Z,100733.84
2023-05-21T04:18:55.530Z,100733.34
2023-05-21T04:21:25.211Z,100732.88
2023-05-21T04:23:54.033Z,100734.53
2023-05-21T04:26:33.800Z,100738.03
2023-05-21T04:29:03.030Z,100738.03
2023-05-21T04:31:31.295Z,100738.19
2023-05-21T04:33:59.805Z,100734.38
2023-05-21T04:36:29.062Z,100736.34
2023-05-21T04:38:58.243Z,100739.69
2023-05-21T04:41:26.070Z,100742.38
2023-05-21T04:43:55.473Z,100742.22
2023-05-21T04:46:26.865Z,100736.88
2023-05-21T04:48:55.926Z,100738.56
2023-05-21T04:51:26.753Z,100738.72
2023-05-21T04:53:54.684Z,100738.25
2023-05-21T04:56:22.910Z,100738.41
2023-05-21T04:58:50.790Z,100743.72
2023-05-21T05:01:20.091Z,100739.94
2023-05-21T05:03:48.032Z,100738.75
2023-05-21T05:06:16.709Z,100738.75
2023-05-21T05:08:46.127Z,100737.94
2023-05-21T05:11:15.367Z,100739.44
2023-05-21T05:13:43.299Z,100735.28
2023-05-21T05:16:12.871Z,100701.22
2023-05-21T05:18:43.555Z,100747.09
2023-05-21T05:21:12.781Z,100747.09
2023-05-21T05:23:40.568Z,100723.44
2023-05-21T05:26:09.604Z,100744.13
2023-05-21T05:28:37.513Z,100744.81
2023-05-21T05:31:05.647Z,100719.31
2023-05-21T05:33:34.176Z,100742.69
2023-05-21T05:36:03.403Z,100743.16
2023-05-21T05:38:31.209Z,100740.50
2023-05-21T05:40:59.113Z,100743.84
2023-05-21T05:43:27.470Z,100746.34
2023-05-21T05:45:56.792Z,100727.88
2023-05-21T05:48:25.040Z,100729.91
2023-05-21T05:50:54.722Z,100742.09
2023-05-21T05:53:25.057Z,100729.25
2023-05-21T05:55:53.337Z,100738.59
2023-05-21T05:58:21.334Z,100726.97
2023-05-21T06:00:59.274Z,100730.97
2023-05-21T06:03:29.411Z,100730.97
2023-05-21T06:05:58.092Z,100722.69
2023-05-21T06:08:29.117Z,100714.00
2023-05-21T06:10:56.878Z,100724.16
2023-05-21T06:13:24.961Z,100716.00
2023-05-21T06:15:54.335Z,100723.69
2023-05-21T06:18:22.170Z,100731.69
2023-05-21T06:20:50.064Z,100718.03
2023-05-21T06:23:22.195Z,100718.72
2023-05-21T06:25:54.496Z,100715.78
2023-05-21T06:28:22.290Z,100712.56
2023-05-21T06:30:52.372Z,100704.22
2023-05-21T06:33:21.560Z,100709.75
2023-05-21T06:35:49.438Z,100722.06
2023-05-21T06:38:17.312Z,100719.75
2023-05-21T06:40:48.029Z,100706.09
2023-05-21T06:43:28.691Z,100719.28
2023-05-21T06:46:14.912Z,100719.44
2023-05-21T06:48:45.893Z,100691.06
2023-05-21T06:51:16.589Z,100724.44
2023-05-21T06:53:44.418Z,100723.47
2023-05-21T06:56:13.056Z,100722.47
2023-05-21T06:58:44.916Z,100727.13
2023-05-21T07:01:13.963Z,100725.13
2023-05-21T07:03:42.491Z,100730.13
2023-05-21T07:06:10.538Z,100729.16
2023-05-21T07:08:40.466Z,100730.16
2023-05-21T07:11:08.313Z,100725.66
2023-05-21T07:13:36.483Z,100704.81
2023-05-21T07:16:07.877Z,100743.66
2023-05-21T07:18:40.213Z,100713.50
2023-05-21T07:21:09.024Z,100724.84
2023-05-21T07:23:38.657Z,100734.34
2023-05-21T07:26:09.103Z,100732.19
2023-05-21T07:28:37.228Z,100738.72
2023-05-21T07:31:08.558Z,100741.38
2023-05-21T07:33:43.258Z,100744.03
2023-05-21T07:36:15.097Z,100739.22
2023-05-21T07:38:44.970Z,100733.56
2023-05-21T07:41:14.097Z,100736.88
2023-05-21T07:43:42.748Z,100743.91
2023-05-21T07:46:12.776Z,100743.53
2023-05-21T07:48:41.737Z,100740.72
2023-05-21T07:51:09.582Z,100737.88
2023-05-21T07:53:37.529Z,100740.88
2023-05-21T07:56:09.003Z,100739.22
2023-05-21T07:58:36.980Z,100738.72
2023-05-21T08:01:04.814Z,100743.53
2023-05-21T08:03:34.924Z,100739.88
2023-05-21T08:06:03.227Z,100732.69
2023-05-21T08:08:31.319Z,100729.88
2023-05-21T08:10:59.384Z,100729.88
2023-05-21T08:13:28.617Z,100729.53
2023-05-21T08:15:59.179Z,100734.22
2023-05-21T08:18:28.487Z,100736.88
2023-05-21T08:21:00.340Z,100741.03
2023-05-21T08:23:29.207Z,100743.53
2023-05-21T08:25:59.983Z,100741.88
2023-05-21T08:28:28.953Z,100741.88
2023-05-21T08:30:57.723Z,100744.56
2023-05-21T08:33:26.413Z,100728.69
2023-05-21T08:35:54.483Z,100734.88
2023-05-21T08:38:30.214Z,100694.88
2023-05-21T08:40:59.562Z,100736.75
2023-05-21T08:43:29.427Z,100737.25
2023-05-21T08:46:01.781Z,100725.22
2023-05-21T08:48:33.285Z,100720.91
2023-05-21T08:51:01.383Z,100730.88
2023-05-21T08:53:35.423Z,100725.19
2023-05-21T08:56:07.939Z,100719.84
2023-05-21T08:58:53.134Z,100714.84
2023-05-21T09:01:26.666Z,100724.97
2023-05-21T09:04:19.540Z,100718.81
2023-05-21T09:06:57.986Z,100699.81
2023-05-21T09:09:53.710Z,100699.09
2023-05-21T09:12:21.891Z,100702.75
2023-05-21T09:14:52.718Z,100706.75
2023-05-21T09:17:24.805Z,100708.91
2023-05-21T09:20:16.373Z,100704.69
2023-05-21T09:22:52.004Z,100695.50
2023-05-21T09:25:24.064Z,100702.66
2023-05-21T09:27:52.616Z,100702.00
2023-05-21T09:30:25.304Z,100697.66
2023-05-21T09:32:59.120Z,100696.81
2023-05-21T09:35:28.136Z,100705.44
2023-05-21T09:37:58.068Z,100704.44
2023-05-21T09:40:27.395Z,100702.41
2023-05-21T09:42:56.769Z,100713.22
2023-05-21T09:45:26.195Z,100701.47
2023-05-21T09:47:57.781Z,100695.78
2023-05-21T09:50:27.805Z,100706.72
2023-05-21T09:52:57.362Z,100692.09
2023-05-21T09:55:27.663Z,100684.03
2023-05-21T09:57:55.558Z,100687.00
2023-05-21T10:00:27.406Z,100695.91
2023-05-21T10:02:56.687Z,100695.22
2023-05-21T10:05:28.385Z,100691.19
2023-05-21T10:08:02.151Z,100685.22
2023-05-21T10:10:33.653Z,100687.53
2023-05-21T10:13:07.041Z,100689.28
2023-05-21T10:15:45.078Z,100666.56
2023-05-21T10:18:14.387Z,100685.00
2023-05-21T10:20:43.575Z,100674.97
2023-05-21T10:23:12.968Z,100680.41
2023-05-21T10:25:42.829Z,100683.66
2023-05-21T10:28:11.147Z,100672.41
2023-05-21T10:30:39.535Z,100678.59
2023-05-21T10:33:08.175Z,100667.31
2023-05-21T10:35:39.152Z,100660.50
2023-05-21T10:38:09.233Z,100648.81
2023-05-21T10:40:37.776Z,100649.19
2023-05-21T10:43:28.805Z,100651.31
2023-05-21T10:46:18.430Z,100647.78
2023-05-21T10:49:01.528Z,100640.97
2023-05-21T10:51:40.620Z,100646.53
2023-05-21T10:54:28.511Z,100645.00
2023-05-21T10:57:03.094Z,100640.56
2023-05-21T10:59:41.912Z,100640.31
2023-05-21T11:02:12.521Z,100622.69
2023-05-21T11:04:43.276Z,100631.63
2023-05-21T11:07:14.520Z,100642.44
2023-05-21T11:09:42.473Z,100640.50
2023-05-21T11:12:10.333Z,100635.59
2023-05-21T11:14:42.910Z,100630.38
2023-05-21T11:17:14.969Z,100635.63
2023-05-21T11:19:44.359Z,100620.47
2023-05-21T11:22:23.516Z,100635.19
2023-05-21T11:24:52.526Z,100629.28
2023-05-21T11:27:36.959Z,100630.78
2023-05-21T11:30:08.699Z,100617.94
2023-05-21T11:32:40.829Z,100629.91
2023-05-21T11:35:15.101Z,100646.00
2023-05-21T11:37:46.062Z,100639.31
2023-05-21T11:40:34.895Z,100642.63
2023-05-21T11:43:02.834Z,100635.16
2023-05-21T11:45:33.406Z,100634.28
2023-05-21T11:48:01.495Z,100631.06
2023-05-21T11:50:30.834Z,100625.47
2023-05-21T11:53:00.582Z,100625.63
2023-05-21T11:55:28.713Z,100623.34
2023-05-21T11:57:56.610Z,100628.91
2023-05-21T12:00:24.653Z,100625.91
2023-05-21T12:02:55.760Z,100619.16
2023-05-21T12:05:24.875Z,100623.72
2023-05-21T12:07:54.556Z,100623.25
2023-05-21T12:10:23.545Z,100622.38
2023-05-21T12:12:56.495Z,100627.47
2023-05-21T12:15:26.288Z,100616.88
2023-05-21T12:17:56.308Z,100618.59
2023-05-21T12:20:24.356Z,100616.59
2023-05-21T12:22:52.379Z,100615.41
2023-05-21T12:25:21.066Z,100623.34
2023-05-21T12:27:52.563Z,100614.66
2023-05-21T12:30:21.336Z,100622.84
2023-05-21T12:32:50.326Z,100617.34
2023-05-21T12:35:25.764Z,100600.88
2023-05-21T12:37:53.635Z,100566.84
2023-05-21T12:40:22.312Z,100617.34
2023-05-21T12:42:50.836Z,100612.44
2023-05-21T12:45:21.078Z,100620.06
2023-05-21T12:47:50.751Z,100619.34
2023-05-21T12:50:22.200Z,100609.91
2023-05-21T12:52:55.093Z,100598.06
2023-05-21T12:55:24.170Z,100597.47
2023-05-21T12:57:52.286Z,100597.28
2023-05-21T13:00:25.172Z,100599.72
2023-05-21T13:02:53.157Z,100595.97
2023-05-21T13:05:20.999Z,100597.31
2023-05-21T13:07:48.869Z,100596.72
2023-05-21T13:10:20.988Z,100577.81
2023-05-21T13:12:48.778Z,100592.09
2023-05-21T13:15:19.157Z,100566.25
2023-05-21T13:17:49.243Z,100592.44
2023-05-21T13:20:21.684Z,100583.16
2023-05-21T13:22:51.931Z,100586.06
2023-05-21T13:25:22.774Z,100586.41
2023-05-21T13:27:52.196Z,100594.66
2023-05-21T13:30:20.863Z,100578.31
2023-05-21T13:32:49.123Z,100582.78
2023-05-21T13:35:17.691Z,100593.16
2023-05-21T13:37:45.970Z,100584.78
2023-05-21T13:40:16.272Z,100585.31
2023-05-21T13:42:47.114Z,100586.66
2023-05-21T13:45:16.777Z,100582.25
2023-05-21T13:47:45.671Z,100582.44
2023-05-21T13:50:13.957Z,100589.84
2023-05-21T13:52:42.366Z,100578.84
2023-05-21T13:55:11.711Z,100579.44
2023-05-21T13:57:40.728Z,100582.59
2023-05-21T14:00:14.234Z,100572.25
2023-05-21T14:02:43.062Z,100572.00
2023-05-21T14:05:12.080Z,100571.34
2023-05-21T14:07:40.854Z,100570.34
2023-05-21T14:10:09.804Z,100568.72
2023-05-21T14:12:38.530Z,100576.84
2023-05-21T14:15:07.732Z,100563.34
2023-05-21T14:17:37.159Z,100548.66
2023-05-21T14:20:05.488Z,100533.69
2023-05-21T14:22:33.226Z,100557.00
2023-05-21T14:25:00.954Z,100552.94
2023-05-21T14:27:28.695Z,100560.97
2023-05-21T14:29:56.427Z,100562.94
2023-05-21T14:32:24.565Z,100562.00
2023-05-21T14:34:56.652Z,100564.16
2023-05-21T14:37:24.658Z,100566.72
2023-05-21T14:39:52.387Z,100573.03
2023-05-21T14:42:20.161Z,100561.03
2023-05-21T14:44:47.918Z,100553.25
2023-05-21T14:47:16.230Z,100555.03
2023-05-21T14:49:43.975Z,100559.50
2023-05-21T14:52:13.115Z,100555.13
2023-05-21T14:54:40.841Z,100561.22
2023-05-21T14:57:08.739Z,100558.13
2023-05-21T14:59:36.617Z,100551.56
2023-05-21T15:02:04.581Z,100555.31
2023-05-21T15:04:32.423Z,100542.47
2023-05-21T15:07:00.243Z,100526.06
2023-05-21T15:09:29.334Z,100542.81
2023-05-21T15:11:57.185Z,100521.94
2023-05-21T15:14:25.102Z,100522.78
2023-05-21T15:16:53.352Z,100525.09
2023-05-21T15:19:23.004Z,100494.88
2023-05-21T15:21:51.841Z,100529.09
2023-05-21T15:24:19.755Z,100522.47
2023-05-21T15:26:51.685Z,100528.56
2023-05-21T15:29:19.952Z,100519.44
2023-05-21T15:31:48.324Z,100509.81
2023-05-21T15:34:17.961Z,100504.66
2023-05-21T15:36:46.107Z,100511.59
2023-05-21T15:39:13.995Z,100509.81
2023-05-21T15:41:41.820Z,100508.47
2023-05-21T15:44:11.168Z,100502.25
2023-05-21T15:46:39.149Z,100511.47
2023-05-21T15:49:07.093Z,100478.03
2023-05-21T15:51:35.190Z,100500.78
2023-05-21T15:54:03.144Z,100504.88
2023-05-21T15:56:31.288Z,100512.75
2023-05-21T15:59:01.346Z,100502.88
2023-05-21T16:01:31.004Z,100506.63
2023-05-21T16:03:59.263Z,100489.88
2023-05-21T16:06:27.868Z,100516.69
2023-05-21T16:08:57.833Z,100515.22
2023-05-21T16:11:29.158Z,100504.16
2023-05-21T16:13:57.218Z,100507.47
2023-05-21T16:16:25.650Z,100508.59
2023-05-21T16:18:55.214Z,100505.44
2023-05-21T16:21:23.189Z,100489.59
2023-05-21T16:23:51.310Z,100504.66
2023-05-21T16:26:19.149Z,100493.16
2023-05-21T16:28:47.036Z,100492.34
2023-05-21T16:31:15.216Z,100493.22
2023-05-21T16:33:43.175Z,100498.63
2023-05-21T16:36:12.548Z,100499.19
2023-05-21T16:38:40.369Z,100496.97
2023-05-21T16:41:08.360Z,100492.59
2023-05-21T16:43:36.294Z,100495.81
2023-05-21T16:46:04.184Z,100498.53
2023-05-21T16:48:32.751Z,100498.53
2023-05-21T16:51:00.847Z,100502.38
2023-05-21T16:53:32.542Z,100505.03
2023-05-21T16:56:00.290Z,100512.09
2023-05-21T16:58:28.291Z,100514.31
2023-05-21T17:00:56.226Z,100496.00
2023-05-21T17:03:24.183Z,100507.31
2023-05-21T17:05:52.955Z,100510.25
2023-05-21T17:08:20.799Z,100509.06
2023-05-21T17:10:49.969Z,100507.88
2023-05-21T17:13:22.316Z,100509.34
2023-05-21T17:15:51.872Z,100509.78
2023-05-21T17:18:19.739Z,100509.22
2023-05-21T17:20:47.764Z,100509.03
2023-05-21T17:23:15.666Z,100508.06
2023-05-21T17:25:43.576Z,100508.38
2023-05-21T17:28:15.680Z,100518.31
2023-05-21T17:30:43.471Z,100515.63
2023-05-21T17:33:12.176Z,100526.22
2023-05-21T17:35:40.316Z,100528.09
2023-05-21T17:38:08.305Z,100525.63
2023-05-21T17:40:38.995Z,100514.44
2023-05-21T17:43:07.467Z,100527.66
2023-05-21T17:45:36.881Z,100529.13
2023-05-21T17:48:07.518Z,100528.88
2023-05-21T17:50:35.862Z,100506.28
2023-05-21T17:53:03.642Z,100538.47
2023-05-21T17:55:31.728Z,100541.91
2023-05-21T17:58:00.202Z,100541.88
2023-05-21T18:00:28.093Z,100555.97
2023-05-21T18:02:57.392Z,100559.69
2023-05-21T18:05:25.465Z,100520.38
2023-05-21T18:07:53.622Z,100556.72
2023-05-21T18:10:21.415Z,100570.25
2023-05-21T18:12:49.301Z,100574.78
2023-05-21T18:15:17.263Z,100594.25
2023-05-21T18:17:45.486Z,100609.28
2023-05-21T18:20:19.749Z,100589.50
2023-05-21T18:22:47.698Z,100578.50
2023-05-21T18:25:17.268Z,100573.59
2023-05-21T18:27:45.142Z,100576.47
2023-05-21T18:30:14.013Z,100548.00
2023-05-21T18:32:59.470Z,100560.28
2023-05-21T18:35:30.994Z,100563.19
2023-05-21T18:37:58.912Z,100550.69
2023-05-21T18:40:30.485Z,100571.56
2023-05-21T18:42:58.790Z,100577.22
2023-05-21T18:45:27.032Z,100574.56
2023-05-21T18:47:54.943Z,100569.34
2023-05-21T18:50:22.767Z,100573.53
2023-05-21T18:52:53.359Z,100543.81
2023-05-21T18:55:21.436Z,100572.66
2023-05-21T18:57:49.494Z,100573.53
2023-05-21T19:00:17.943Z,65118.94
2023-05-21T19:02:46.706Z,65118.94
2023-05-21T19:05:14.743Z,65118.94
2023-05-21T19:07:42.750Z,65118.94
2023-05-21T19:10:13.147Z,65118.94
2023-05-21T19:12:42.421Z,65118.94
2023-05-21T19:15:11.521Z,65118.94
2023-05-21T19:17:40.035Z,65118.94
2023-05-21T19:20:09.362Z,65118.94
2023-05-21T19:22:38.003Z,65118.94
2023-05-21T19:25:06.661Z,65118.94
2023-05-21T19:27:35.834Z,65118.94
2023-05-21T19:30:04.234Z,65118.94
2023-05-21T19:32:32.103Z,65118.94
2023-05-21T19:35:01.630Z,65118.94
2023-05-21T19:37:29.540Z,65118.94
2023-05-21T19:39:57.384Z,65118.94
2023-05-21T19:42:25.520Z,65118.94
2023-05-21T19:44:59.098Z,65118.94
2023-05-21T19:47:27.351Z,65118.94
2023-05-21T19:49:55.687Z,65118.94
2023-05-21T19:52:26.137Z,65118.94
2023-05-21T19:54:53.948Z,65118.94
2023-05-21T19:57:21.840Z,65118.94
2023-05-21T19:59:49.658Z,65118.94
2023-05-21T20:02:19.054Z,65118.94
2023-05-21T20:04:46.933Z,65118.94
2023-05-21T20:07:17.534Z,65118.94
2023-05-21T20:09:45.410Z,65118.94
2023-05-21T20:12:13.234Z,65118.94
2023-05-21T20:14:41.693Z,65118.94
2023-05-21T20:17:10.199Z,65118.94
2023-05-21T20:19:41.393Z,65118.94
2023-05-21T20:22:10.469Z,65118.94
2023-05-21T20:24:38.392Z,65118.94
2023-05-21T20:27:06.866Z,65118.94
2023-05-21T20:29:34.837Z,65118.94
2023-05-21T20:32:02.641Z,65118.94
2023-05-21T20:34:30.773Z,65118.94
2023-05-21T20:36:59.992Z,65118.94
2023-05-21T20:39:29.476Z,65118.94
2023-05-21T20:41:58.414Z,65118.94
2023-05-21T20:44:27.606Z,65118.94
2023-05-21T20:46:55.722Z,65118.94
2023-05-21T20:49:25.035Z,65118.94
2023-05-21T20:51:52.912Z,65118.94
2023-05-21T20:54:23.224Z,65118.94
2023-05-21T20:56:54.791Z,65118.94
2023-05-21T20:59:22.587Z,65118.94
2023-05-21T21:01:50.566Z,65118.94
2023-05-21T21:04:18.927Z,65118.94
2023-05-21T21:06:47.032Z,65118.94
2023-05-21T21:09:14.904Z,65118.94
2023-05-21T21:11:44.425Z,65118.94
2023-05-21T21:14:13.671Z,65118.94
2023-05-21T21:16:41.639Z,65118.94
2023-05-21T21:19:09.628Z,65118.94
2023-05-21T21:21:37.505Z,65118.94
2023-05-21T21:24:06.061Z,65118.94
2023-05-21T21:26:34.049Z,65118.94
2023-05-21T21:29:03.448Z,65118.94
2023-05-21T21:31:31.669Z,65118.94
2023-05-21T21:33:59.594Z,65118.94
2023-05-21T21:36:28.814Z,65118.94
2023-05-21T21:38:56.791Z,65118.94
2023-05-21T21:41:24.690Z,65118.94
2023-05-21T21:43:52.693Z,65118.94
2023-05-21T21:46:21.957Z,65118.94
2023-05-21T21:48:49.750Z,65118.94
2023-05-21T21:51:17.638Z,65118.94
2023-05-21T21:53:45.515Z,65118.94
2023-05-21T21:56:13.364Z,65118.94
2023-05-21T21:58:41.177Z,65118.94
2023-05-21T22:01:09.087Z,65118.94
2023-05-21T22:03:38.306Z,65118.94
2023-05-21T22:06:06.336Z,65118.94
2023-05-21T22:08:34.210Z,65118.94
2023-05-21T22:11:02.168Z,65118.94
2023-05-21T22:13:30.236Z,65118.94
2023-05-21T22:15:58.020Z,65118.94
2023-05-21T22:18:39.681Z,65118.94
2023-05-21T22:21:10.831Z,65118.94
2023-05-21T22:23:39.064Z,65118.94
2023-05-21T22:26:06.953Z,65118.94
2023-05-21T22:28:34.991Z,65118.94
2023-05-21T22:31:03.034Z,65118.94
2023-05-21T22:33:31.469Z,65118.94
2023-05-21T22:35:59.250Z,65118.94
2023-05-21T22:38:28.440Z,65118.94
2023-05-21T22:40:56.525Z,65118.94
2023-05-21T22:43:24.358Z,65118.94
2023-05-21T22:45:52.198Z,65118.94
2023-05-21T22:48:21.891Z,65118.94
2023-05-21T22:50:50.226Z,65118.94
2023-05-21T22:53:18.497Z,65118.94
2023-05-21T22:55:47.792Z,65118.94
2023-05-21T22:58:15.623Z,65118.94
2023-05-21T23:00:44.087Z,65118.94
2023-05-21T23:03:12.504Z,65118.94
2023-05-21T23:05:40.764Z,65118.94
2023-05-21T23:08:08.738Z,65118.94
2023-05-21T23:10:36.603Z,65118.94
2023-05-21T23:13:06.025Z,65118.94
2023-05-21T23:15:33.828Z,65118.94
2023-05-21T23:18:04.005Z,65118.94
2023-05-21T23:20:32.465Z,65118.94
2023-05-21T23:23:00.263Z,65118.94
2023-05-21T23:25:28.089Z,65118.94
2023-05-21T23:27:55.877Z,65118.94
2023-05-21T23:30:25.067Z,65118.94
2023-05-21T23:32:52.956Z,65118.94
2023-05-21T23:35:20.827Z,65118.94
2023-05-21T23:37:48.962Z,65118.94
2023-05-21T23:40:16.990Z,65118.94
2023-05-21T23:42:44.811Z,65118.94
2023-05-21T23:45:12.787Z,65118.94
2023-05-21T23:47:42.270Z,65118.94
2023-05-21T23:50:10.727Z,65118.94
2023-05-21T23:52:38.528Z,65118.94
2023-05-21T23:55:07.139Z,65118.94
2023-05-21T23:57:35.233Z,65118.94
